sensor_id;sensor_type;location;lat;lon;timestamp;P1;durP1;ratioP1;P2;durP2;ratioP2
48975;SDS011;34791;52.752;8.346;2023-12-20T00:02:15;11.87;;;2.60;;
48975;SDS011;34791;52.752;8.346;2023-12-20T00:04:41;10.30;;;2.60;;
48975;SDS011;34791;52.752;8.346;2023-12-20T00:07:06;11.63;;;2.83;;
48975;SDS011;34791;52.752;8.346;2023-12-20T00:09:32;15.90;;;3.07;;
48975;SDS011;34791;52.752;8.346;2023-12-20T00:11:57;15.23;;;2.73;;
48975;SDS011;34791;52.752;8.346;2023-12-20T00:14:22;16.23;;;3.00;;
48975;SDS011;34791;52.752;8.346;2023-12-20T00:16:47;16.23;;;2.80;;
48975;SDS011;34791;52.752;8.346;2023-12-20T00:19:13;20.07;;;2.80;;
48975;SDS011;34791;52.752;8.346;2023-12-20T00:21:38;14.70;;;2.70;;
48975;SDS011;34791;52.752;8.346;2023-12-20T00:24:03;14.10;;;2.70;;
48975;SDS011;34791;52.752;8.346;2023-12-20T00:26:29;19.90;;;3.77;;
48975;SDS011;34791;52.752;8.346;2023-12-20T00:28:54;12.57;;;2.57;;
48975;SDS011;34791;52.752;8.346;2023-12-20T00:31:19;17.53;;;2.90;;
48975;SDS011;34791;52.752;8.346;2023-12-20T00:33:44;14.43;;;3.00;;
48975;SDS011;34791;52.752;8.346;2023-12-20T00:36:12;17.80;;;2.67;;
48975;SDS011;34791;52.752;8.346;2023-12-20T00:38:37;19.23;;;2.67;;
48975;SDS011;34791;52.752;8.346;2023-12-20T00:41:02;12.67;;;3.50;;
48975;SDS011;34791;52.752;8.346;2023-12-20T00:43:27;11.50;;;2.73;;
48975;SDS011;34791;52.752;8.346;2023-12-20T00:45:53;10.03;;;2.60;;
48975;SDS011;34791;52.752;8.346;2023-12-20T00:48:18;14.33;;;2.90;;
48975;SDS011;34791;52.752;8.346;2023-12-20T00:50:43;13.57;;;3.50;;
48975;SDS011;34791;52.752;8.346;2023-12-20T00:53:08;13.53;;;2.97;;
48975;SDS011;34791;52.752;8.346;2023-12-20T00:55:34;14.83;;;2.83;;
48975;SDS011;34791;52.752;8.346;2023-12-20T00:57:59;12.90;;;2.90;;
48975;SDS011;34791;52.752;8.346;2023-12-20T01:00:25;18.10;;;2.90;;
48975;SDS011;34791;52.752;8.346;2023-12-20T01:02:50;14.33;;;2.93;;
48975;SDS011;34791;52.752;8.346;2023-12-20T01:05:16;13.50;;;2.70;;
48975;SDS011;34791;52.752;8.346;2023-12-20T01:07:42;18.27;;;3.00;;
48975;SDS011;34791;52.752;8.346;2023-12-20T01:10:07;13.43;;;3.10;;
48975;SDS011;34791;52.752;8.346;2023-12-20T01:12:33;11.93;;;2.47;;
48975;SDS011;34791;52.752;8.346;2023-12-20T01:14:58;16.93;;;2.70;;
48975;SDS011;34791;52.752;8.346;2023-12-20T01:17:23;17.20;;;2.60;;
48975;SDS011;34791;52.752;8.346;2023-12-20T01:19:49;12.73;;;2.60;;
48975;SDS011;34791;52.752;8.346;2023-12-20T01:22:14;26.37;;;2.80;;
48975;SDS011;34791;52.752;8.346;2023-12-20T01:24:39;11.70;;;2.40;;
48975;SDS011;34791;52.752;8.346;2023-12-20T01:27:04;10.63;;;2.60;;
48975;SDS011;34791;52.752;8.346;2023-12-20T01:29:30;19.23;;;2.80;;
48975;SDS011;34791;52.752;8.346;2023-12-20T01:31:55;15.87;;;2.27;;
48975;SDS011;34791;52.752;8.346;2023-12-20T01:34:20;18.87;;;2.63;;
48975;SDS011;34791;52.752;8.346;2023-12-20T01:36:46;13.73;;;2.23;;
48975;SDS011;34791;52.752;8.346;2023-12-20T01:39:11;15.83;;;2.40;;
48975;SDS011;34791;52.752;8.346;2023-12-20T01:41:36;20.07;;;3.40;;
48975;SDS011;34791;52.752;8.346;2023-12-20T01:44:01;16.60;;;2.67;;
48975;SDS011;34791;52.752;8.346;2023-12-20T01:46:27;10.77;;;2.10;;
48975;SDS011;34791;52.752;8.346;2023-12-20T01:48:52;13.87;;;2.50;;
48975;SDS011;34791;52.752;8.346;2023-12-20T01:51:17;12.67;;;2.73;;
48975;SDS011;34791;52.752;8.346;2023-12-20T01:53:43;9.30;;;1.80;;
48975;SDS011;34791;52.752;8.346;2023-12-20T01:56:08;12.13;;;2.20;;
48975;SDS011;34791;52.752;8.346;2023-12-20T01:58:35;21.80;;;2.70;;
48975;SDS011;34791;52.752;8.346;2023-12-20T02:01:02;13.67;;;2.27;;
48975;SDS011;34791;52.752;8.346;2023-12-20T02:03:28;10.87;;;2.63;;
48975;SDS011;34791;52.752;8.346;2023-12-20T02:05:53;11.47;;;2.53;;
48975;SDS011;34791;52.752;8.346;2023-12-20T02:08:18;16.07;;;2.63;;
48975;SDS011;34791;52.752;8.346;2023-12-20T02:10:44;12.53;;;2.37;;
48975;SDS011;34791;52.752;8.346;2023-12-20T02:13:09;15.10;;;2.60;;
48975;SDS011;34791;52.752;8.346;2023-12-20T02:15:35;14.47;;;1.97;;
48975;SDS011;34791;52.752;8.346;2023-12-20T02:18:02;11.73;;;2.67;;
48975;SDS011;34791;52.752;8.346;2023-12-20T02:20:27;13.07;;;2.73;;
48975;SDS011;34791;52.752;8.346;2023-12-20T02:22:53;10.73;;;2.10;;
48975;SDS011;34791;52.752;8.346;2023-12-20T02:25:18;14.87;;;2.70;;
48975;SDS011;34791;52.752;8.346;2023-12-20T02:27:43;14.50;;;2.70;;
48975;SDS011;34791;52.752;8.346;2023-12-20T02:30:09;16.60;;;2.50;;
48975;SDS011;34791;52.752;8.346;2023-12-20T02:32:35;12.77;;;2.53;;
48975;SDS011;34791;52.752;8.346;2023-12-20T02:35:00;17.90;;;2.83;;
48975;SDS011;34791;52.752;8.346;2023-12-20T02:37:25;12.20;;;2.20;;
48975;SDS011;34791;52.752;8.346;2023-12-20T02:39:50;10.90;;;1.80;;
48975;SDS011;34791;52.752;8.346;2023-12-20T02:42:16;13.73;;;1.90;;
48975;SDS011;34791;52.752;8.346;2023-12-20T02:44:41;12.63;;;2.40;;
48975;SDS011;34791;52.752;8.346;2023-12-20T02:47:06;27.83;;;2.73;;
48975;SDS011;34791;52.752;8.346;2023-12-20T02:49:32;7.77;;;1.80;;
48975;SDS011;34791;52.752;8.346;2023-12-20T02:51:57;15.13;;;2.77;;
48975;SDS011;34791;52.752;8.346;2023-12-20T02:54:22;13.63;;;2.23;;
48975;SDS011;34791;52.752;8.346;2023-12-20T02:56:48;17.00;;;2.97;;
48975;SDS011;34791;52.752;8.346;2023-12-20T02:59:13;15.17;;;2.63;;
48975;SDS011;34791;52.752;8.346;2023-12-20T03:01:42;11.70;;;2.70;;
48975;SDS011;34791;52.752;8.346;2023-12-20T03:04:07;13.97;;;2.70;;
48975;SDS011;34791;52.752;8.346;2023-12-20T03:06:33;10.53;;;2.43;;
48975;SDS011;34791;52.752;8.346;2023-12-20T03:08:58;13.47;;;3.20;;
48975;SDS011;34791;52.752;8.346;2023-12-20T03:11:26;25.73;;;3.90;;
48975;SDS011;34791;52.752;8.346;2023-12-20T03:13:51;12.80;;;2.50;;
48975;SDS011;34791;52.752;8.346;2023-12-20T03:16:16;13.33;;;3.23;;
48975;SDS011;34791;52.752;8.346;2023-12-20T03:18:42;14.10;;;3.10;;
48975;SDS011;34791;52.752;8.346;2023-12-20T03:21:07;12.77;;;2.17;;
48975;SDS011;34791;52.752;8.346;2023-12-20T03:23:32;19.50;;;3.50;;
48975;SDS011;34791;52.752;8.346;2023-12-20T03:26:01;11.80;;;2.70;;
48975;SDS011;34791;52.752;8.346;2023-12-20T03:28:27;15.47;;;3.33;;
48975;SDS011;34791;52.752;8.346;2023-12-20T03:30:52;15.03;;;2.67;;
48975;SDS011;34791;52.752;8.346;2023-12-20T03:33:17;16.53;;;2.90;;
48975;SDS011;34791;52.752;8.346;2023-12-20T03:35:43;18.37;;;3.63;;
48975;SDS011;34791;52.752;8.346;2023-12-20T03:38:08;14.20;;;2.87;;
48975;SDS011;34791;52.752;8.346;2023-12-20T03:40:34;15.13;;;3.30;;
48975;SDS011;34791;52.752;8.346;2023-12-20T03:42:59;17.57;;;2.93;;
48975;SDS011;34791;52.752;8.346;2023-12-20T03:45:24;20.73;;;3.97;;
48975;SDS011;34791;52.752;8.346;2023-12-20T03:47:50;11.77;;;2.70;;
48975;SDS011;34791;52.752;8.346;2023-12-20T03:50:20;16.77;;;3.87;;
48975;SDS011;34791;52.752;8.346;2023-12-20T03:52:45;18.33;;;3.40;;
48975;SDS011;34791;52.752;8.346;2023-12-20T03:55:10;15.93;;;2.80;;
48975;SDS011;34791;52.752;8.346;2023-12-20T03:57:35;19.13;;;2.93;;
48975;SDS011;34791;52.752;8.346;2023-12-20T04:00:01;11.83;;;2.70;;
48975;SDS011;34791;52.752;8.346;2023-12-20T04:02:26;21.77;;;3.47;;
48975;SDS011;34791;52.752;8.346;2023-12-20T04:04:51;9.60;;;2.40;;
48975;SDS011;34791;52.752;8.346;2023-12-20T04:07:18;9.10;;;2.67;;
48975;SDS011;34791;52.752;8.346;2023-12-20T04:09:43;14.23;;;2.77;;
48975;SDS011;34791;52.752;8.346;2023-12-20T04:12:08;10.47;;;2.53;;
48975;SDS011;34791;52.752;8.346;2023-12-20T04:14:33;15.73;;;2.30;;
48975;SDS011;34791;52.752;8.346;2023-12-20T04:16:59;18.43;;;3.37;;
48975;SDS011;34791;52.752;8.346;2023-12-20T04:19:24;11.97;;;2.30;;
48975;SDS011;34791;52.752;8.346;2023-12-20T04:21:49;13.00;;;2.70;;
48975;SDS011;34791;52.752;8.346;2023-12-20T04:24:15;9.20;;;2.37;;
48975;SDS011;34791;52.752;8.346;2023-12-20T04:26:40;15.73;;;2.47;;
48975;SDS011;34791;52.752;8.346;2023-12-20T04:29:05;12.60;;;3.17;;
48975;SDS011;34791;52.752;8.346;2023-12-20T04:31:31;11.40;;;2.77;;
48975;SDS011;34791;52.752;8.346;2023-12-20T04:33:56;11.20;;;2.40;;
48975;SDS011;34791;52.752;8.346;2023-12-20T04:36:21;13.00;;;2.70;;
48975;SDS011;34791;52.752;8.346;2023-12-20T04:38:47;9.70;;;1.73;;
48975;SDS011;34791;52.752;8.346;2023-12-20T04:41:12;9.80;;;2.63;;
48975;SDS011;34791;52.752;8.346;2023-12-20T04:43:40;9.60;;;2.07;;
48975;SDS011;34791;52.752;8.346;2023-12-20T04:46:06;17.47;;;3.00;;
48975;SDS011;34791;52.752;8.346;2023-12-20T04:48:31;11.67;;;2.40;;
48975;SDS011;34791;52.752;8.346;2023-12-20T04:50:56;12.13;;;2.50;;
48975;SDS011;34791;52.752;8.346;2023-12-20T04:53:21;10.77;;;2.40;;
48975;SDS011;34791;52.752;8.346;2023-12-20T04:55:47;14.20;;;2.80;;
48975;SDS011;34791;52.752;8.346;2023-12-20T04:58:12;17.83;;;3.70;;
48975;SDS011;34791;52.752;8.346;2023-12-20T05:00:37;11.83;;;2.53;;
48975;SDS011;34791;52.752;8.346;2023-12-20T05:03:02;15.03;;;3.23;;
48975;SDS011;34791;52.752;8.346;2023-12-20T05:05:28;14.90;;;3.07;;
48975;SDS011;34791;52.752;8.346;2023-12-20T05:07:53;14.63;;;3.07;;
48975;SDS011;34791;52.752;8.346;2023-12-20T05:10:18;10.07;;;2.70;;
48975;SDS011;34791;52.752;8.346;2023-12-20T05:12:44;15.00;;;3.03;;
48975;SDS011;34791;52.752;8.346;2023-12-20T05:15:09;22.93;;;4.37;;
48975;SDS011;34791;52.752;8.346;2023-12-20T05:17:34;17.30;;;3.50;;
48975;SDS011;34791;52.752;8.346;2023-12-20T05:19:59;16.33;;;3.07;;
48975;SDS011;34791;52.752;8.346;2023-12-20T05:22:25;16.83;;;3.80;;
48975;SDS011;34791;52.752;8.346;2023-12-20T05:24:50;15.40;;;3.40;;
48975;SDS011;34791;52.752;8.346;2023-12-20T05:27:18;13.17;;;3.57;;
48975;SDS011;34791;52.752;8.346;2023-12-20T05:29:43;16.20;;;3.80;;
48975;SDS011;34791;52.752;8.346;2023-12-20T05:32:09;10.77;;;3.47;;
48975;SDS011;34791;52.752;8.346;2023-12-20T05:34:35;11.63;;;3.37;;
48975;SDS011;34791;52.752;8.346;2023-12-20T05:37:00;13.87;;;4.63;;
48975;SDS011;34791;52.752;8.346;2023-12-20T05:39:26;9.07;;;2.97;;
48975;SDS011;34791;52.752;8.346;2023-12-20T05:41:52;16.10;;;4.40;;
48975;SDS011;34791;52.752;8.346;2023-12-20T05:44:17;19.77;;;4.60;;
48975;SDS011;34791;52.752;8.346;2023-12-20T05:46:42;17.33;;;4.00;;
48975;SDS011;34791;52.752;8.346;2023-12-20T05:49:07;20.07;;;4.50;;
48975;SDS011;34791;52.752;8.346;2023-12-20T05:51:33;21.70;;;3.70;;
48975;SDS011;34791;52.752;8.346;2023-12-20T05:53:58;22.30;;;4.50;;
48975;SDS011;34791;52.752;8.346;2023-12-20T05:56:23;21.83;;;3.47;;
48975;SDS011;34791;52.752;8.346;2023-12-20T05:58:49;20.07;;;3.47;;
48975;SDS011;34791;52.752;8.346;2023-12-20T06:01:14;20.00;;;3.37;;
48975;SDS011;34791;52.752;8.346;2023-12-20T06:03:43;14.97;;;3.93;;
48975;SDS011;34791;52.752;8.346;2023-12-20T06:06:08;19.23;;;4.50;;
48975;SDS011;34791;52.752;8.346;2023-12-20T06:08:34;10.13;;;2.73;;
48975;SDS011;34791;52.752;8.346;2023-12-20T06:10:59;15.70;;;3.67;;
48975;SDS011;34791;52.752;8.346;2023-12-20T06:13:24;9.00;;;2.80;;
48975;SDS011;34791;52.752;8.346;2023-12-20T06:15:49;18.33;;;4.33;;
48975;SDS011;34791;52.752;8.346;2023-12-20T06:18:15;14.07;;;3.30;;
48975;SDS011;34791;52.752;8.346;2023-12-20T06:20:40;18.70;;;4.30;;
48975;SDS011;34791;52.752;8.346;2023-12-20T06:23:05;19.40;;;3.47;;
48975;SDS011;34791;52.752;8.346;2023-12-20T06:25:30;17.27;;;4.07;;
48975;SDS011;34791;52.752;8.346;2023-12-20T06:27:56;20.10;;;4.00;;
48975;SDS011;34791;52.752;8.346;2023-12-20T06:30:21;11.53;;;3.37;;
48975;SDS011;34791;52.752;8.346;2023-12-20T06:32:46;15.73;;;3.87;;
48975;SDS011;34791;52.752;8.346;2023-12-20T06:35:12;19.73;;;3.40;;
48975;SDS011;34791;52.752;8.346;2023-12-20T06:37:37;20.57;;;3.60;;
48975;SDS011;34791;52.752;8.346;2023-12-20T06:40:07;21.90;;;3.93;;
48975;SDS011;34791;52.752;8.346;2023-12-20T06:42:32;11.67;;;2.57;;
48975;SDS011;34791;52.752;8.346;2023-12-20T06:44:58;14.53;;;2.67;;
48975;SDS011;34791;52.752;8.346;2023-12-20T06:47:23;33.13;;;4.03;;
48975;SDS011;34791;52.752;8.346;2023-12-20T06:49:48;7.83;;;2.03;;
48975;SDS011;34791;52.752;8.346;2023-12-20T06:52:14;10.53;;;2.77;;
48975;SDS011;34791;52.752;8.346;2023-12-20T06:54:39;12.90;;;2.73;;
48975;SDS011;34791;52.752;8.346;2023-12-20T06:57:04;15.93;;;3.30;;
48975;SDS011;34791;52.752;8.346;2023-12-20T06:59:29;20.67;;;3.43;;
48975;SDS011;34791;52.752;8.346;2023-12-20T07:01:55;15.40;;;4.03;;
48975;SDS011;34791;52.752;8.346;2023-12-20T07:04:20;10.53;;;2.93;;
48975;SDS011;34791;52.752;8.346;2023-12-20T07:06:47;13.80;;;2.23;;
48975;SDS011;34791;52.752;8.346;2023-12-20T07:09:13;14.77;;;3.53;;
48975;SDS011;34791;52.752;8.346;2023-12-20T07:11:38;14.93;;;3.50;;
48975;SDS011;34791;52.752;8.346;2023-12-20T07:14:04;13.03;;;2.53;;
48975;SDS011;34791;52.752;8.346;2023-12-20T07:16:29;18.47;;;3.23;;
48975;SDS011;34791;52.752;8.346;2023-12-20T07:18:54;14.07;;;3.77;;
48975;SDS011;34791;52.752;8.346;2023-12-20T07:21:19;16.40;;;3.80;;
48975;SDS011;34791;52.752;8.346;2023-12-20T07:23:45;19.03;;;3.07;;
48975;SDS011;34791;52.752;8.346;2023-12-20T07:26:10;13.90;;;3.17;;
48975;SDS011;34791;52.752;8.346;2023-12-20T07:28:36;19.50;;;3.67;;
48975;SDS011;34791;52.752;8.346;2023-12-20T07:31:01;17.27;;;3.30;;
48975;SDS011;34791;52.752;8.346;2023-12-20T07:33:27;16.37;;;3.60;;
48975;SDS011;34791;52.752;8.346;2023-12-20T07:35:52;17.70;;;3.93;;
48975;SDS011;34791;52.752;8.346;2023-12-20T07:38:17;14.33;;;2.33;;
48975;SDS011;34791;52.752;8.346;2023-12-20T07:40:42;12.83;;;3.20;;
48975;SDS011;34791;52.752;8.346;2023-12-20T07:43:08;14.50;;;2.37;;
48975;SDS011;34791;52.752;8.346;2023-12-20T07:45:33;19.53;;;3.97;;
48975;SDS011;34791;52.752;8.346;2023-12-20T07:47:58;14.73;;;2.93;;
48975;SDS011;34791;52.752;8.346;2023-12-20T07:50:24;17.00;;;3.70;;
48975;SDS011;34791;52.752;8.346;2023-12-20T07:52:49;17.07;;;3.67;;
48975;SDS011;34791;52.752;8.346;2023-12-20T07:55:14;21.50;;;3.73;;
48975;SDS011;34791;52.752;8.346;2023-12-20T07:57:40;19.00;;;3.60;;
48975;SDS011;34791;52.752;8.346;2023-12-20T08:00:05;13.37;;;3.40;;
48975;SDS011;34791;52.752;8.346;2023-12-20T08:02:30;13.17;;;3.63;;
48975;SDS011;34791;52.752;8.346;2023-12-20T08:04:56;20.30;;;3.27;;
48975;SDS011;34791;52.752;8.346;2023-12-20T08:07:21;19.30;;;3.00;;
48975;SDS011;34791;52.752;8.346;2023-12-20T08:09:46;18.10;;;4.00;;
48975;SDS011;34791;52.752;8.346;2023-12-20T08:12:11;18.53;;;3.10;;
48975;SDS011;34791;52.752;8.346;2023-12-20T08:14:37;9.57;;;2.33;;
48975;SDS011;34791;52.752;8.346;2023-12-20T08:17:02;17.57;;;3.03;;
48975;SDS011;34791;52.752;8.346;2023-12-20T08:19:27;9.30;;;2.60;;
48975;SDS011;34791;52.752;8.346;2023-12-20T08:21:53;5.13;;;1.87;;
48975;SDS011;34791;52.752;8.346;2023-12-20T08:24:18;11.00;;;2.53;;
48975;SDS011;34791;52.752;8.346;2023-12-20T08:26:43;11.83;;;2.47;;
48975;SDS011;34791;52.752;8.346;2023-12-20T08:29:08;13.23;;;2.60;;
48975;SDS011;34791;52.752;8.346;2023-12-20T08:31:34;21.80;;;3.37;;
48975;SDS011;34791;52.752;8.346;2023-12-20T08:33:59;9.37;;;2.80;;
48975;SDS011;34791;52.752;8.346;2023-12-20T08:36:24;10.50;;;2.73;;
48975;SDS011;34791;52.752;8.346;2023-12-20T08:38:51;9.63;;;2.33;;
48975;SDS011;34791;52.752;8.346;2023-12-20T08:41:16;12.80;;;2.93;;
48975;SDS011;34791;52.752;8.346;2023-12-20T08:43:42;20.53;;;3.23;;
48975;SDS011;34791;52.752;8.346;2023-12-20T08:46:08;10.40;;;3.13;;
48975;SDS011;34791;52.752;8.346;2023-12-20T08:48:34;11.90;;;2.63;;
48975;SDS011;34791;52.752;8.346;2023-12-20T08:51:00;10.20;;;2.20;;
48975;SDS011;34791;52.752;8.346;2023-12-20T08:53:25;7.83;;;2.30;;
48975;SDS011;34791;52.752;8.346;2023-12-20T08:55:50;17.90;;;2.50;;
48975;SDS011;34791;52.752;8.346;2023-12-20T08:58:15;12.97;;;2.80;;
48975;SDS011;34791;52.752;8.346;2023-12-20T09:00:41;15.80;;;2.47;;
48975;SDS011;34791;52.752;8.346;2023-12-20T09:03:06;12.83;;;2.63;;
48975;SDS011;34791;52.752;8.346;2023-12-20T09:05:32;14.00;;;3.23;;
48975;SDS011;34791;52.752;8.346;2023-12-20T09:07:57;11.57;;;2.63;;
48975;SDS011;34791;52.752;8.346;2023-12-20T09:10:22;9.63;;;2.53;;
48975;SDS011;34791;52.752;8.346;2023-12-20T09:12:49;11.90;;;2.57;;
48975;SDS011;34791;52.752;8.346;2023-12-20T09:15:14;16.00;;;2.87;;
48975;SDS011;34791;52.752;8.346;2023-12-20T09:17:40;14.70;;;2.80;;
48975;SDS011;34791;52.752;8.346;2023-12-20T09:20:06;14.27;;;2.93;;
48975;SDS011;34791;52.752;8.346;2023-12-20T09:22:33;10.57;;;2.73;;
48975;SDS011;34791;52.752;8.346;2023-12-20T09:24:58;14.90;;;3.40;;
48975;SDS011;34791;52.752;8.346;2023-12-20T09:27:23;13.57;;;2.90;;
48975;SDS011;34791;52.752;8.346;2023-12-20T09:29:49;13.27;;;3.10;;
48975;SDS011;34791;52.752;8.346;2023-12-20T09:32:14;13.93;;;2.83;;
48975;SDS011;34791;52.752;8.346;2023-12-20T09:34:40;8.63;;;2.33;;
48975;SDS011;34791;52.752;8.346;2023-12-20T09:37:06;14.67;;;3.00;;
48975;SDS011;34791;52.752;8.346;2023-12-20T09:39:32;14.90;;;3.50;;
48975;SDS011;34791;52.752;8.346;2023-12-20T09:42:01;9.23;;;2.50;;
48975;SDS011;34791;52.752;8.346;2023-12-20T09:44:27;16.33;;;2.73;;
48975;SDS011;34791;52.752;8.346;2023-12-20T09:46:52;16.50;;;2.53;;
48975;SDS011;34791;52.752;8.346;2023-12-20T09:49:19;11.13;;;2.17;;
48975;SDS011;34791;52.752;8.346;2023-12-20T09:51:46;11.00;;;2.70;;
48975;SDS011;34791;52.752;8.346;2023-12-20T09:54:11;9.00;;;2.50;;
48975;SDS011;34791;52.752;8.346;2023-12-20T09:56:37;17.90;;;3.83;;
48975;SDS011;34791;52.752;8.346;2023-12-20T09:59:03;16.20;;;3.37;;
48975;SDS011;34791;52.752;8.346;2023-12-20T10:01:28;19.87;;;3.40;;
48975;SDS011;34791;52.752;8.346;2023-12-20T10:03:54;10.47;;;2.73;;
48975;SDS011;34791;52.752;8.346;2023-12-20T10:06:19;13.60;;;3.53;;
48975;SDS011;34791;52.752;8.346;2023-12-20T10:08:45;18.83;;;2.60;;
48975;SDS011;34791;52.752;8.346;2023-12-20T10:11:11;10.47;;;3.07;;
48975;SDS011;34791;52.752;8.346;2023-12-20T10:13:39;14.03;;;2.27;;
48975;SDS011;34791;52.752;8.346;2023-12-20T10:16:06;10.23;;;1.60;;
48975;SDS011;34791;52.752;8.346;2023-12-20T10:18:31;4.53;;;1.50;;
48975;SDS011;34791;52.752;8.346;2023-12-20T10:20:57;5.03;;;1.33;;
48975;SDS011;34791;52.752;8.346;2023-12-20T10:23:22;5.17;;;0.93;;
48975;SDS011;34791;52.752;8.346;2023-12-20T10:25:56;9.00;;;1.57;;
48975;SDS011;34791;52.752;8.346;2023-12-20T10:28:23;5.00;;;1.43;;
48975;SDS011;34791;52.752;8.346;2023-12-20T10:30:52;4.40;;;1.00;;
48975;SDS011;34791;52.752;8.346;2023-12-20T10:33:27;5.23;;;1.10;;
48975;SDS011;34791;52.752;8.346;2023-12-20T10:35:53;4.53;;;1.00;;
48975;SDS011;34791;52.752;8.346;2023-12-20T10:38:19;7.80;;;2.10;;
48975;SDS011;34791;52.752;8.346;2023-12-20T10:40:47;2.13;;;0.50;;
48975;SDS011;34791;52.752;8.346;2023-12-20T10:43:12;0.20;;;0.20;;
48975;SDS011;34791;52.752;8.346;2023-12-20T10:45:41;0.20;;;0.20;;
48975;SDS011;34791;52.752;8.346;2023-12-20T10:48:07;0.20;;;0.20;;
48975;SDS011;34791;52.752;8.346;2023-12-20T10:50:32;0.20;;;0.20;;
48975;SDS011;34791;52.752;8.346;2023-12-20T10:52:58;0.20;;;0.20;;
48975;SDS011;34791;52.752;8.346;2023-12-20T10:55:24;0.43;;;0.40;;
48975;SDS011;34791;52.752;8.346;2023-12-20T10:58:23;0.20;;;0.20;;
48975;SDS011;34791;52.752;8.346;2023-12-20T11:00:41;0.20;;;0.20;;
48975;SDS011;34791;52.752;8.346;2023-12-20T11:03:08;0.20;;;0.20;;
48975;SDS011;34791;52.752;8.346;2023-12-20T11:08:05;0.20;;;0.20;;
48975;SDS011;34791;52.752;8.346;2023-12-20T11:10:32;0.27;;;0.27;;
48975;SDS011;34791;52.752;8.346;2023-12-20T11:15:26;0.20;;;0.20;;
48975;SDS011;34791;52.752;8.346;2023-12-20T11:17:55;2.67;;;0.50;;
48975;SDS011;34791;52.752;8.346;2023-12-20T11:20:24;0.20;;;0.20;;
48975;SDS011;34791;52.752;8.346;2023-12-20T11:22:53;0.50;;;0.50;;
48975;SDS011;34791;52.752;8.346;2023-12-20T11:25:18;0.53;;;0.50;;
48975;SDS011;34791;52.752;8.346;2023-12-20T11:27:44;0.20;;;0.20;;
48975;SDS011;34791;52.752;8.346;2023-12-20T11:30:10;0.20;;;0.20;;
48975;SDS011;34791;52.752;8.346;2023-12-20T11:32:36;0.20;;;0.20;;
48975;SDS011;34791;52.752;8.346;2023-12-20T11:35:22;1.47;;;0.60;;
48975;SDS011;34791;52.752;8.346;2023-12-20T11:37:48;2.47;;;0.60;;
48975;SDS011;34791;52.752;8.346;2023-12-20T11:40:17;5.13;;;0.90;;
48975;SDS011;34791;52.752;8.346;2023-12-20T11:42:48;2.50;;;0.77;;
48975;SDS011;34791;52.752;8.346;2023-12-20T11:45:14;3.27;;;0.87;;
48975;SDS011;34791;52.752;8.346;2023-12-20T11:47:43;3.47;;;0.70;;
48975;SDS011;34791;52.752;8.346;2023-12-20T11:50:10;6.97;;;0.77;;
48975;SDS011;34791;52.752;8.346;2023-12-20T11:52:35;2.70;;;0.60;;
48975;SDS011;34791;52.752;8.346;2023-12-20T11:55:01;5.60;;;1.10;;
48975;SDS011;34791;52.752;8.346;2023-12-20T11:57:26;3.13;;;0.87;;
48975;SDS011;34791;52.752;8.346;2023-12-20T11:59:52;5.23;;;1.00;;
48975;SDS011;34791;52.752;8.346;2023-12-20T12:02:17;10.57;;;1.00;;
48975;SDS011;34791;52.752;8.346;2023-12-20T12:04:43;3.17;;;0.90;;
48975;SDS011;34791;52.752;8.346;2023-12-20T12:07:08;5.17;;;1.00;;
48975;SDS011;34791;52.752;8.346;2023-12-20T12:09:34;4.87;;;1.10;;
48975;SDS011;34791;52.752;8.346;2023-12-20T12:11:59;7.23;;;0.97;;
48975;SDS011;34791;52.752;8.346;2023-12-20T12:14:24;8.47;;;1.20;;
48975;SDS011;34791;52.752;8.346;2023-12-20T12:16:50;4.23;;;1.30;;
48975;SDS011;34791;52.752;8.346;2023-12-20T12:19:22;8.40;;;1.10;;
48975;SDS011;34791;52.752;8.346;2023-12-20T12:21:47;4.60;;;1.03;;
48975;SDS011;34791;52.752;8.346;2023-12-20T12:24:12;7.70;;;1.20;;
48975;SDS011;34791;52.752;8.346;2023-12-20T12:26:38;8.43;;;1.73;;
48975;SDS011;34791;52.752;8.346;2023-12-20T12:29:03;8.23;;;1.10;;
48975;SDS011;34791;52.752;8.346;2023-12-20T12:31:28;3.33;;;0.70;;
48975;SDS011;34791;52.752;8.346;2023-12-20T12:33:53;5.30;;;1.23;;
48975;SDS011;34791;52.752;8.346;2023-12-20T12:36:19;8.83;;;1.80;;
48975;SDS011;34791;52.752;8.346;2023-12-20T12:38:44;7.10;;;1.17;;
48975;SDS011;34791;52.752;8.346;2023-12-20T12:41:09;2.47;;;0.73;;
48975;SDS011;34791;52.752;8.346;2023-12-20T12:43:35;7.03;;;1.27;;
48975;SDS011;34791;52.752;8.346;2023-12-20T12:46:01;7.00;;;1.23;;
48975;SDS011;34791;52.752;8.346;2023-12-20T12:48:26;7.00;;;1.30;;
48975;SDS011;34791;52.752;8.346;2023-12-20T12:50:53;4.97;;;0.80;;
48975;SDS011;34791;52.752;8.346;2023-12-20T12:53:19;6.50;;;1.10;;
48975;SDS011;34791;52.752;8.346;2023-12-20T12:55:44;4.67;;;0.83;;
48975;SDS011;34791;52.752;8.346;2023-12-20T12:58:11;8.40;;;1.63;;
48975;SDS011;34791;52.752;8.346;2023-12-20T13:00:36;7.67;;;1.03;;
48975;SDS011;34791;52.752;8.346;2023-12-20T13:03:02;8.77;;;1.20;;
48975;SDS011;34791;52.752;8.346;2023-12-20T13:05:27;7.27;;;1.93;;
48975;SDS011;34791;52.752;8.346;2023-12-20T13:07:53;5.40;;;1.37;;
48975;SDS011;34791;52.752;8.346;2023-12-20T13:10:18;6.33;;;1.10;;
48975;SDS011;34791;52.752;8.346;2023-12-20T13:12:43;8.73;;;1.20;;
48975;SDS011;34791;52.752;8.346;2023-12-20T13:15:09;6.40;;;1.33;;
48975;SDS011;34791;52.752;8.346;2023-12-20T13:17:34;7.97;;;1.07;;
48975;SDS011;34791;52.752;8.346;2023-12-20T13:19:59;8.03;;;1.20;;
48975;SDS011;34791;52.752;8.346;2023-12-20T13:22:25;4.97;;;1.60;;
48975;SDS011;34791;52.752;8.346;2023-12-20T13:24:50;6.50;;;1.17;;
48975;SDS011;34791;52.752;8.346;2023-12-20T13:27:15;8.77;;;1.10;;
48975;SDS011;34791;52.752;8.346;2023-12-20T13:29:40;5.20;;;0.90;;
48975;SDS011;34791;52.752;8.346;2023-12-20T13:32:07;6.77;;;1.30;;
48975;SDS011;34791;52.752;8.346;2023-12-20T13:34:32;10.07;;;1.07;;
48975;SDS011;34791;52.752;8.346;2023-12-20T13:36:57;7.23;;;1.10;;
48975;SDS011;34791;52.752;8.346;2023-12-20T13:39:23;9.93;;;2.13;;
48975;SDS011;34791;52.752;8.346;2023-12-20T13:41:48;5.23;;;1.37;;
48975;SDS011;34791;52.752;8.346;2023-12-20T13:44:13;6.30;;;0.93;;
48975;SDS011;34791;52.752;8.346;2023-12-20T13:46:40;8.40;;;1.50;;
48975;SDS011;34791;52.752;8.346;2023-12-20T13:49:05;6.47;;;1.60;;
48975;SDS011;34791;52.752;8.346;2023-12-20T13:51:30;5.43;;;1.20;;
48975;SDS011;34791;52.752;8.346;2023-12-20T13:53:57;11.70;;;1.80;;
48975;SDS011;34791;52.752;8.346;2023-12-20T13:56:22;6.10;;;1.47;;
48975;SDS011;34791;52.752;8.346;2023-12-20T13:58:48;6.73;;;1.40;;
48975;SDS011;34791;52.752;8.346;2023-12-20T14:01:13;10.67;;;1.77;;
48975;SDS011;34791;52.752;8.346;2023-12-20T14:03:38;7.47;;;1.13;;
48975;SDS011;34791;52.752;8.346;2023-12-20T14:06:04;7.47;;;1.10;;
48975;SDS011;34791;52.752;8.346;2023-12-20T14:08:29;9.07;;;1.27;;
48975;SDS011;34791;52.752;8.346;2023-12-20T14:10:54;12.90;;;1.80;;
48975;SDS011;34791;52.752;8.346;2023-12-20T14:13:19;7.83;;;1.20;;
48975;SDS011;34791;52.752;8.346;2023-12-20T14:15:46;9.47;;;2.23;;
48975;SDS011;34791;52.752;8.346;2023-12-20T14:18:11;10.10;;;1.60;;
48975;SDS011;34791;52.752;8.346;2023-12-20T14:20:39;8.30;;;1.20;;
48975;SDS011;34791;52.752;8.346;2023-12-20T14:23:07;8.80;;;1.30;;
48975;SDS011;34791;52.752;8.346;2023-12-20T14:25:32;6.80;;;1.80;;
48975;SDS011;34791;52.752;8.346;2023-12-20T14:27:58;11.90;;;1.50;;
48975;SDS011;34791;52.752;8.346;2023-12-20T14:30:24;6.73;;;1.50;;
48975;SDS011;34791;52.752;8.346;2023-12-20T14:32:50;5.70;;;1.37;;
48975;SDS011;34791;52.752;8.346;2023-12-20T14:35:15;8.87;;;1.70;;